Aérodrome :
LOGIN :

S'inscrire | Disclaimer

   EN    FR    IT 

 










Légende :    VFR   VFR Marginal   IFR   IFR Intensif   IFR Très Intensif
Visi : 
Plafond : 
>= 8 km
>= 3000ft
5 à 8 km
1000 à 3000 ft
1500m à 5 km
500 à 1000 ft
800 à 1500m
200 à 500 ft
< 800m
< 200 ft
Symboles :   Orages  Brouillard  Fortes neiges  Fortes précipitations  Vent > 20 kt
SIGMETs :   Divers  Orages  Givrage  Turbulence  Onde Orograph.  Cendres Volcan.






- Altitude de l'aérodrome : 1058 ft
- Code IATA : SCN


EDDR - Saarbrücken

DERNIER METAR :
  • 150420Z 23015KT 9999 -RA FEW005 BKN012 09/08 Q0999

METARs EXPIRÉS :
  • 150350Z 25014KT 7000 -RA FEW003 SCT009 BKN025 09/09 Q1000 RERA
  • 150320Z 28010KT 3000 RA BR FEW003 BKN004 08/08 Q1000
  • 150250Z 20008KT 150V230 6000 RA FEW003 BKN005 08/08 Q0999
  • 150220Z 19008KT 9000 RA FEW003 BKN006 08/08 Q1000
  • 150150Z 21009KT 9000 -RA FEW005 BKN009 08/07 Q1000
  • 150120Z 20012KT 9999 -RA FEW007 SCT010 BKN045 08/07 Q1000

TAF TAF EDDR
Valide du 15 à 00h jusqu'au 16 à 00h UTC


142300Z 1500/1524 21009KT 9999 BKN030
TEMPO 1500/1505 21015G25KT RA BKN009
BECMG 1503/1506 22015G25KT
TEMPO 1505/1513 24020G35KT SHRA BKN012 BKN020CB
BECMG 1512/1514 24010KT
BECMG 1517/1520 22005KT



MET'MAP, la Météo Aéronautique d'un coup d'oeil ! - Copyright ORBIFLY Décembre 2007 - Disclaimer

ORBIFLY MET'MAP TEAM :

Programmation & Développement : Alexandra Zaïnal
Sur une idée originale de : Baudouin d'Aumeries
Assistance à la programmation : Marc-Olivier Méhu
Soutien technique & logistique : Manuel Goepfert

Contact : metmap@orbifly.com




SOURCES & CREDITS :

   NOAA